createdAt,value
2018-10-21T00:02:36.970Z,5.23
2018-10-21T00:07:40.695Z,5.27
2018-10-21T00:12:44.313Z,5.03
2018-10-21T00:17:48.007Z,5.20
2018-10-21T00:22:51.666Z,5.67
2018-10-21T00:27:55.350Z,5.63
2018-10-21T00:32:59.022Z,5.00
2018-10-21T00:38:02.598Z,5.50
2018-10-21T00:43:06.218Z,5.90
2018-10-21T00:48:09.833Z,6.27
2018-10-21T00:53:13.455Z,5.10
2018-10-21T00:58:17.078Z,6.77
2018-10-21T01:03:20.706Z,5.70
2018-10-21T01:08:24.378Z,5.17
2018-10-21T01:13:28.094Z,5.70
2018-10-21T01:18:31.723Z,6.47
2018-10-21T01:23:35.364Z,6.20
2018-10-21T01:28:38.990Z,5.57
2018-10-21T01:33:42.722Z,6.80
2018-10-21T01:38:46.343Z,6.10
2018-10-21T01:43:49.957Z,6.43
2018-10-21T01:48:53.558Z,5.87
2018-10-21T01:53:57.246Z,6.00
2018-10-21T01:59:00.890Z,5.37
2018-10-21T02:04:04.831Z,6.00
2018-10-21T02:09:08.523Z,5.83
2018-10-21T02:14:12.169Z,6.80
2018-10-21T02:19:15.730Z,5.57
2018-10-21T02:24:19.460Z,6.07
2018-10-21T02:29:23.190Z,7.20
2018-10-21T02:34:27.003Z,5.90
2018-10-21T02:39:30.627Z,5.90
2018-10-21T02:44:34.256Z,6.50
2018-10-21T02:49:37.950Z,6.10
2018-10-21T02:54:41.566Z,7.10
2018-10-21T02:59:45.284Z,5.83
2018-10-21T03:04:49.110Z,6.33
2018-10-21T03:09:52.742Z,5.40
2018-10-21T03:14:56.459Z,5.50
2018-10-21T03:20:00.064Z,6.20
2018-10-21T03:25:03.713Z,7.10
2018-10-21T03:30:07.327Z,5.73
2018-10-21T03:35:10.947Z,6.83
2018-10-21T03:40:14.667Z,6.77
2018-10-21T03:45:18.372Z,6.70
2018-10-21T03:50:21.995Z,6.43
2018-10-21T03:55:25.685Z,8.17
2018-10-21T04:00:29.336Z,5.93
2018-10-21T04:05:33.260Z,7.20
2018-10-21T04:10:36.859Z,6.47
2018-10-21T04:15:40.558Z,6.63
2018-10-21T04:20:44.172Z,7.27
2018-10-21T04:25:47.908Z,7.40
2018-10-21T04:30:51.527Z,6.70
2018-10-21T04:35:55.237Z,6.80
2018-10-21T04:40:58.885Z,6.70
2018-10-21T04:46:02.572Z,6.70
2018-10-21T04:51:06.178Z,6.30
2018-10-21T04:56:09.883Z,5.80
2018-10-21T05:01:13.531Z,6.30
2018-10-21T05:06:17.179Z,7.70
2018-10-21T05:11:20.835Z,7.03
2018-10-21T05:16:24.513Z,7.33
2018-10-21T05:21:28.090Z,7.90
2018-10-21T05:26:31.701Z,7.77
2018-10-21T05:31:35.648Z,8.57
2018-10-21T05:36:39.248Z,7.57
2018-10-21T05:41:42.866Z,8.60
2018-10-21T05:46:47.769Z,7.23
2018-10-21T05:51:51.958Z,7.83
2018-10-21T05:56:55.564Z,8.20
2018-10-21T06:01:59.191Z,7.33
2018-10-21T06:07:02.813Z,7.70
2018-10-21T06:12:07.270Z,8.70
2018-10-21T06:17:13.634Z,8.20
2018-10-21T06:22:17.430Z,8.00
2018-10-21T06:27:20.988Z,8.27
2018-10-21T06:32:24.668Z,9.43
2018-10-21T06:37:28.224Z,9.73
2018-10-21T06:42:31.839Z,8.90
2018-10-21T06:47:35.728Z,9.23
2018-10-21T06:52:39.355Z,8.10
2018-10-21T06:57:43.763Z,9.00
2018-10-21T07:02:47.327Z,10.17
2018-10-21T07:07:51.339Z,10.77
2018-10-21T07:12:54.970Z,10.40
2018-10-21T07:17:58.598Z,10.83
2018-10-21T07:23:02.292Z,9.70
2018-10-21T07:28:06.001Z,9.53
2018-10-21T07:33:09.618Z,10.60
2018-10-21T07:38:13.275Z,11.10
2018-10-21T07:43:16.874Z,10.87
2018-10-21T07:48:20.574Z,9.73
2018-10-21T07:53:24.298Z,11.43
2018-10-21T07:58:27.970Z,11.20
2018-10-21T08:03:31.638Z,11.27
2018-10-21T08:08:35.344Z,10.47
2018-10-21T08:13:38.914Z,11.77
2018-10-21T08:18:42.555Z,9.90
2018-10-21T08:23:46.209Z,8.80
2018-10-21T08:28:49.818Z,8.13
2018-10-21T08:33:53.535Z,8.70
2018-10-21T08:38:57.082Z,9.00
2018-10-21T08:44:00.777Z,8.70
2018-10-21T08:49:04.723Z,8.20
2018-10-21T08:54:08.319Z,8.13
2018-10-21T08:59:11.935Z,8.77
2018-10-21T09:04:15.681Z,6.90
2018-10-21T09:09:19.282Z,8.83
2018-10-21T09:14:22.925Z,8.40
2018-10-21T09:19:26.550Z,7.53
2018-10-21T09:24:30.222Z,7.80
2018-10-21T09:29:34.005Z,6.30
2018-10-21T09:34:37.667Z,5.43
2018-10-21T09:39:41.647Z,4.73
2018-10-21T09:44:45.718Z,4.73
2018-10-21T09:49:49.460Z,4.50
2018-10-21T09:54:53.152Z,3.80
2018-10-21T09:59:56.925Z,4.47
2018-10-21T10:05:00.722Z,4.30
2018-10-21T10:10:04.649Z,4.97
2018-10-21T10:15:08.748Z,4.50
2018-10-21T10:20:12.431Z,5.00
2018-10-21T10:25:16.124Z,2.90
2018-10-21T10:30:19.684Z,3.00
2018-10-21T10:35:23.387Z,3.37
2018-10-21T10:40:27.009Z,2.93
2018-10-21T10:45:30.747Z,3.07
2018-10-21T10:50:34.424Z,4.37
2018-10-21T10:55:43.702Z,2.90
2018-10-21T11:00:47.479Z,2.20
2018-10-21T11:05:51.150Z,3.27
2018-10-21T11:10:56.479Z,3.10
2018-10-21T11:16:02.469Z,2.77
2018-10-21T11:21:08.500Z,2.57
2018-10-21T11:26:12.362Z,2.47
2018-10-21T11:31:16.045Z,2.30
2018-10-21T11:36:19.683Z,2.40
2018-10-21T11:41:23.466Z,2.47
2018-10-21T11:46:27.197Z,2.60
2018-10-21T11:51:30.894Z,1.63
2018-10-21T11:56:37.395Z,1.77
2018-10-21T12:01:41.241Z,1.80
2018-10-21T12:06:45.029Z,1.53
2018-10-21T12:11:49.342Z,1.97
2018-10-21T12:16:53.037Z,1.97
2018-10-21T12:21:56.717Z,1.60
2018-10-21T12:27:00.361Z,1.30
2018-10-21T12:32:03.946Z,1.40
2018-10-21T12:37:07.578Z,1.70
2018-10-21T12:42:11.175Z,1.57
2018-10-21T12:47:14.861Z,1.80
2018-10-21T12:52:18.451Z,1.20
2018-10-21T12:57:22.106Z,1.67
2018-10-21T13:02:25.987Z,1.30
2018-10-21T13:07:29.580Z,1.67
2018-10-21T13:12:33.197Z,1.27
2018-10-21T13:17:36.907Z,1.13
2018-10-21T13:22:40.523Z,1.83
2018-10-21T13:27:44.164Z,1.77
2018-10-21T13:32:47.809Z,1.90
2018-10-21T13:37:51.677Z,1.87
2018-10-21T13:42:55.310Z,1.87
2018-10-21T13:47:58.952Z,1.80
2018-10-21T13:53:02.738Z,1.60
2018-10-21T13:58:06.393Z,1.23
2018-10-21T14:03:09.975Z,1.20
2018-10-21T14:08:13.594Z,1.17
2018-10-21T14:13:17.304Z,1.70
2018-10-21T14:18:20.895Z,2.27
2018-10-21T14:23:24.526Z,1.90
2018-10-21T14:28:28.190Z,1.67
2018-10-21T14:33:31.939Z,2.30
2018-10-21T14:38:35.686Z,1.57
2018-10-21T14:43:39.235Z,2.33
2018-10-21T14:48:42.858Z,2.00
2018-10-21T14:53:46.464Z,1.83
2018-10-21T14:58:50.092Z,2.20
2018-10-21T15:03:53.771Z,1.37
2018-10-21T15:08:57.403Z,1.70
2018-10-21T15:14:01.059Z,1.47
2018-10-21T15:19:04.770Z,1.80
2018-10-21T15:24:08.385Z,1.40
2018-10-21T15:29:12.035Z,2.43
2018-10-21T15:34:15.776Z,2.50
2018-10-21T15:39:19.342Z,2.10
2018-10-21T15:44:22.967Z,1.90
2018-10-21T15:49:26.633Z,1.90
2018-10-21T15:54:30.987Z,1.50
2018-10-21T15:59:34.634Z,1.73
2018-10-21T16:04:38.323Z,1.43
2018-10-21T16:09:41.970Z,1.60
2018-10-21T16:14:45.596Z,2.27
2018-10-21T16:19:49.397Z,2.27
2018-10-21T16:24:52.930Z,2.07
2018-10-21T16:29:56.569Z,2.37
2018-10-21T16:35:00.175Z,2.03
2018-10-21T16:40:03.787Z,2.20
2018-10-21T16:45:08.007Z,2.47
2018-10-21T16:50:13.719Z,2.43
2018-10-21T16:55:17.975Z,2.80
2018-10-21T17:00:21.802Z,3.03
2018-10-21T17:05:25.366Z,2.43
2018-10-21T17:10:29.349Z,2.83
2018-10-21T17:15:33.416Z,3.70
2018-10-21T17:20:37.266Z,2.70
2018-10-21T17:25:40.975Z,2.63
2018-10-21T17:30:44.858Z,2.80
2018-10-21T17:35:48.520Z,3.03
2018-10-21T17:40:52.124Z,3.03
2018-10-21T17:45:55.851Z,2.93
2018-10-21T17:50:59.490Z,4.13
2018-10-21T17:56:03.098Z,3.50
2018-10-21T18:01:06.767Z,3.40
2018-10-21T18:06:10.682Z,3.40
2018-10-21T18:11:14.426Z,3.60
2018-10-21T18:16:18.241Z,3.57
2018-10-21T18:21:22.543Z,3.47
2018-10-21T18:26:26.544Z,4.23
2018-10-21T18:31:30.516Z,4.03
2018-10-21T18:36:34.401Z,4.83
2018-10-21T18:41:39.650Z,4.47
2018-10-21T18:46:43.649Z,4.80
2018-10-21T18:51:47.441Z,4.17
2018-10-21T18:56:51.167Z,3.90
2018-10-21T19:01:54.807Z,4.07
2018-10-21T19:06:58.466Z,4.60
2018-10-21T19:12:02.051Z,4.33
2018-10-21T19:17:05.665Z,3.77
2018-10-21T19:22:09.304Z,4.90
2018-10-21T19:27:12.984Z,3.80
2018-10-21T19:32:16.539Z,3.33
2018-10-21T19:37:20.322Z,4.83
2018-10-21T19:42:23.982Z,4.50
2018-10-21T19:47:27.606Z,4.20
2018-10-21T19:52:31.243Z,4.40
2018-10-21T19:57:34.926Z,4.03
2018-10-21T20:02:38.554Z,5.00
2018-10-21T20:07:42.215Z,4.03
2018-10-21T20:12:45.938Z,3.60
2018-10-21T20:17:49.547Z,4.70
2018-10-21T20:22:53.214Z,4.30
2018-10-21T20:27:56.974Z,5.07
2018-10-21T20:33:00.729Z,3.83
2018-10-21T20:38:05.290Z,4.80
2018-10-21T20:43:09.100Z,4.50
2018-10-21T20:48:13.026Z,4.47
2018-10-21T20:53:16.751Z,5.57
2018-10-21T20:58:20.411Z,4.60
2018-10-21T21:03:24.034Z,4.60
2018-10-21T21:08:27.778Z,5.07
2018-10-21T21:13:31.437Z,4.90
2018-10-21T21:18:35.095Z,4.70
2018-10-21T21:23:38.713Z,4.83
2018-10-21T21:28:42.335Z,6.10
2018-10-21T21:33:46.102Z,5.97
2018-10-21T21:38:49.747Z,5.17
2018-10-21T21:43:53.391Z,5.00
2018-10-21T21:48:57.110Z,5.30
2018-10-21T21:54:00.758Z,5.17
2018-10-21T21:59:04.590Z,5.50
2018-10-21T22:04:08.335Z,4.43
2018-10-21T22:09:12.831Z,4.97
2018-10-21T22:14:16.460Z,5.07
2018-10-21T22:19:20.227Z,5.20
2018-10-21T22:24:23.862Z,5.23
2018-10-21T22:29:27.598Z,4.93
2018-10-21T22:34:31.337Z,5.40
2018-10-21T22:39:34.949Z,4.80
2018-10-21T22:44:38.654Z,4.57
2018-10-21T22:49:42.264Z,4.80
2018-10-21T22:54:45.899Z,4.97
2018-10-21T22:59:50.347Z,4.97
2018-10-21T23:04:53.974Z,4.93
2018-10-21T23:09:57.629Z,4.80
2018-10-21T23:15:01.194Z,5.13
2018-10-21T23:20:05.767Z,4.73
2018-10-21T23:25:09.454Z,5.57
2018-10-21T23:30:13.123Z,5.33
2018-10-21T23:35:16.695Z,5.23
2018-10-21T23:40:20.324Z,5.07
2018-10-21T23:45:24.023Z,4.67
2018-10-21T23:50:27.689Z,7.80
2018-10-21T23:55:31.360Z,4.50
